createdAt,value
2018-04-18T00:00:53.963Z,22.07
2018-04-18T00:03:21.563Z,22.83
2018-04-18T00:05:49.092Z,22.87
2018-04-18T00:08:16.616Z,26.43
2018-04-18T00:10:44.154Z,24.63
2018-04-18T00:13:11.691Z,22.97
2018-04-18T00:15:39.229Z,21.77
2018-04-18T00:18:06.749Z,26.97
2018-04-18T00:20:35.158Z,26.20
2018-04-18T00:23:02.684Z,26.60
2018-04-18T00:25:30.220Z,29.87
2018-04-18T00:27:57.753Z,23.50
2018-04-18T00:30:25.283Z,23.37
2018-04-18T00:32:53.577Z,22.47
2018-04-18T00:35:21.105Z,22.50
2018-04-18T00:37:49.421Z,25.50
2018-04-18T00:40:17.091Z,31.43
2018-04-18T00:42:44.604Z,22.90
2018-04-18T00:45:12.131Z,24.70
2018-04-18T00:47:39.673Z,22.03
2018-04-18T00:50:07.205Z,21.40
2018-04-18T00:52:34.730Z,21.00
2018-04-18T00:55:02.241Z,21.03
2018-04-18T00:57:29.752Z,23.77
2018-04-18T00:59:57.273Z,25.70
2018-04-18T01:02:24.800Z,25.80
2018-04-18T01:04:52.346Z,24.00
2018-04-18T01:07:19.882Z,23.77
2018-04-18T01:09:48.179Z,24.67
2018-04-18T01:12:16.469Z,27.07
2018-04-18T01:14:43.989Z,21.13
2018-04-18T01:17:11.521Z,22.80
2018-04-18T01:19:39.052Z,22.87
2018-04-18T01:22:06.585Z,21.60
2018-04-18T01:24:34.153Z,20.50
2018-04-18T01:27:01.665Z,21.53
2018-04-18T01:29:29.201Z,21.57
2018-04-18T01:31:56.728Z,21.70
2018-04-18T01:34:24.241Z,23.60
2018-04-18T01:36:51.769Z,25.43
2018-04-18T01:39:19.289Z,23.57
2018-04-18T01:41:47.575Z,21.93
2018-04-18T01:44:15.097Z,21.17
2018-04-18T01:46:42.615Z,25.07
2018-04-18T01:49:22.869Z,24.33
2018-04-18T01:51:50.401Z,18.63
2018-04-18T01:54:17.947Z,21.37
2018-04-18T01:56:46.245Z,25.83
2018-04-18T01:59:13.774Z,23.03
2018-04-18T02:01:41.296Z,25.40
2018-04-18T02:04:08.835Z,28.37
2018-04-18T02:06:36.352Z,21.67
2018-04-18T02:09:03.855Z,25.80
2018-04-18T02:11:31.368Z,25.37
2018-04-18T02:13:59.681Z,27.10
2018-04-18T02:16:27.247Z,25.53
2018-04-18T02:18:54.744Z,24.87
2018-04-18T02:21:22.266Z,27.13
2018-04-18T02:23:49.789Z,26.03
2018-04-18T02:26:17.309Z,24.03
2018-04-18T02:28:44.847Z,30.33
2018-04-18T02:31:12.395Z,26.37
2018-04-18T02:33:39.922Z,25.63
2018-04-18T02:36:08.215Z,26.33
2018-04-18T02:38:35.738Z,30.27
2018-04-18T02:41:04.002Z,28.33
2018-04-18T02:43:31.532Z,27.73
2018-04-18T02:45:59.097Z,24.80
2018-04-18T02:48:26.637Z,23.27
2018-04-18T02:50:54.166Z,24.37
2018-04-18T02:53:22.482Z,24.40
2018-04-18T02:55:50.017Z,24.03
2018-04-18T02:58:17.537Z,23.20
2018-04-18T03:00:45.064Z,25.87
2018-04-18T03:03:12.631Z,23.23
2018-04-18T03:05:40.145Z,23.50
2018-04-18T03:08:07.697Z,21.70
2018-04-18T03:10:35.239Z,24.33
2018-04-18T03:13:03.550Z,26.77
2018-04-18T03:15:31.107Z,24.93
2018-04-18T03:17:58.663Z,24.87
2018-04-18T03:20:26.179Z,26.63
2018-04-18T03:22:53.703Z,25.30
2018-04-18T03:25:21.223Z,25.00
2018-04-18T03:27:49.501Z,26.70
2018-04-18T03:30:17.789Z,22.50
2018-04-18T03:32:45.334Z,25.43
2018-04-18T03:35:12.868Z,26.10
2018-04-18T03:37:40.415Z,23.77
2018-04-18T03:40:07.958Z,27.23
2018-04-18T03:42:35.550Z,27.03
2018-04-18T03:45:03.076Z,28.90
2018-04-18T03:47:30.643Z,28.87
2018-04-18T03:49:58.664Z,26.30
2018-04-18T03:52:26.200Z,26.73
2018-04-18T03:54:53.776Z,28.00
2018-04-18T03:57:22.067Z,24.97
2018-04-18T03:59:49.604Z,28.33
2018-04-18T04:02:17.112Z,26.03
2018-04-18T04:04:44.659Z,25.40
2018-04-18T04:07:12.165Z,27.63
2018-04-18T04:09:39.687Z,26.53
2018-04-18T04:12:07.211Z,24.37
2018-04-18T04:14:34.757Z,25.47
2018-04-18T04:17:14.021Z,23.67
2018-04-18T04:19:53.303Z,24.00
2018-04-18T04:22:33.704Z,24.87
2018-04-18T04:25:01.253Z,25.07
2018-04-18T04:27:28.775Z,21.87
2018-04-18T04:29:56.301Z,24.23
2018-04-18T04:32:23.838Z,27.60
2018-04-18T04:34:52.079Z,30.27
2018-04-18T04:37:20.396Z,24.50
2018-04-18T04:39:47.936Z,27.60
2018-04-18T04:42:16.212Z,28.63
2018-04-18T04:44:44.547Z,29.90
2018-04-18T04:47:12.307Z,24.83
2018-04-18T04:49:39.877Z,31.13
2018-04-18T04:52:07.398Z,28.40
2018-04-18T04:54:34.912Z,31.47
2018-04-18T04:57:03.198Z,32.27
2018-04-18T04:59:31.498Z,32.63
2018-04-18T05:01:59.018Z,30.73
2018-04-18T05:04:26.612Z,28.00
2018-04-18T05:06:54.128Z,31.87
2018-04-18T05:09:22.280Z,31.93
2018-04-18T05:11:49.794Z,35.03
2018-04-18T05:14:17.310Z,30.93
2018-04-18T05:16:44.835Z,43.43
2018-04-18T05:19:12.712Z,32.43
2018-04-18T05:21:40.248Z,39.10
2018-04-18T05:24:07.758Z,34.20
2018-04-18T05:26:35.276Z,34.30
2018-04-18T05:29:02.819Z,35.43
2018-04-18T05:31:30.372Z,33.07
2018-04-18T05:33:57.916Z,34.83
2018-04-18T05:36:26.242Z,36.03
2018-04-18T05:38:53.780Z,37.43
2018-04-18T05:41:21.304Z,35.73
2018-04-18T05:43:49.628Z,42.37
2018-04-18T05:46:17.147Z,43.43
2018-04-18T05:48:44.685Z,41.20
2018-04-18T05:51:12.271Z,39.17
2018-04-18T05:53:40.773Z,44.90
2018-04-18T05:56:08.344Z,42.70
2018-04-18T05:58:35.886Z,42.87
2018-04-18T06:01:03.424Z,41.40
2018-04-18T06:03:31.720Z,39.57
2018-04-18T06:05:59.252Z,40.57
2018-04-18T06:08:26.803Z,42.93
2018-04-18T06:10:55.089Z,40.30
2018-04-18T06:13:23.383Z,42.33
2018-04-18T06:15:51.034Z,43.33
2018-04-18T06:18:19.359Z,42.90
2018-04-18T06:20:46.917Z,47.40
2018-04-18T06:23:14.426Z,41.23
2018-04-18T06:25:42.793Z,46.30
2018-04-18T06:28:11.069Z,43.03
2018-04-18T06:30:38.595Z,37.43
2018-04-18T06:33:06.115Z,41.67
2018-04-18T06:35:33.664Z,38.00
2018-04-18T06:38:01.184Z,39.67
2018-04-18T06:40:28.716Z,37.13
2018-04-18T06:42:56.236Z,39.57
2018-04-18T06:45:23.745Z,40.10
2018-04-18T06:47:51.283Z,38.03
2018-04-18T06:50:19.251Z,45.03
2018-04-18T06:52:46.801Z,35.07
2018-04-18T06:55:14.429Z,37.83
2018-04-18T06:57:42.768Z,45.90
2018-04-18T07:00:10.250Z,33.30
2018-04-18T07:02:37.767Z,34.33
2018-04-18T07:05:05.278Z,33.17
2018-04-18T07:07:33.565Z,36.30
2018-04-18T07:10:01.888Z,37.33
2018-04-18T07:12:29.422Z,32.63
2018-04-18T07:14:56.959Z,34.07
2018-04-18T07:17:24.478Z,29.47
2018-04-18T07:19:51.997Z,35.43
2018-04-18T07:22:19.538Z,32.07
2018-04-18T07:24:47.066Z,33.30
2018-04-18T07:27:14.582Z,32.57
2018-04-18T07:29:42.345Z,29.63
2018-04-18T07:32:09.882Z,33.73
2018-04-18T07:34:37.890Z,35.97
2018-04-18T07:37:05.407Z,28.97
2018-04-18T07:39:32.978Z,29.97
2018-04-18T07:42:00.542Z,29.90
2018-04-18T07:44:28.082Z,26.73
2018-04-18T07:46:56.370Z,25.33
2018-04-18T07:49:23.896Z,27.43
2018-04-18T07:51:51.422Z,27.97
2018-04-18T07:54:18.966Z,27.83
2018-04-18T07:56:46.482Z,20.73
2018-04-18T07:59:14.777Z,22.33
2018-04-18T08:01:42.318Z,23.03
2018-04-18T08:04:10.620Z,22.53
2018-04-18T08:06:38.141Z,19.10
2018-04-18T08:09:06.421Z,21.20
2018-04-18T08:11:33.954Z,17.77
2018-04-18T08:14:01.485Z,21.03
2018-04-18T08:16:29.092Z,24.83
2018-04-18T08:18:57.377Z,18.37
2018-04-18T08:21:25.681Z,13.33
2018-04-18T08:23:53.202Z,11.33
2018-04-18T08:26:20.732Z,11.73
2018-04-18T08:28:48.258Z,14.97
2018-04-18T08:31:15.772Z,12.10
2018-04-18T08:33:44.066Z,12.20
2018-04-18T08:36:11.600Z,16.30
2018-04-18T08:38:39.119Z,20.57
2018-04-18T08:41:06.676Z,16.53
2018-04-18T08:43:34.201Z,15.50
2018-04-18T08:46:01.733Z,15.13
2018-04-18T08:48:29.250Z,11.80
2018-04-18T08:50:56.775Z,13.27
2018-04-18T08:53:25.090Z,15.93
2018-04-18T08:55:52.597Z,12.60
2018-04-18T08:58:20.109Z,11.00
2018-04-18T09:00:47.643Z,11.97
2018-04-18T09:03:15.200Z,14.17
2018-04-18T09:05:42.728Z,12.50
2018-04-18T09:08:11.038Z,15.13
2018-04-18T09:10:38.572Z,20.87
2018-04-18T09:13:06.097Z,14.33
2018-04-18T09:15:33.618Z,16.13
2018-04-18T09:18:01.132Z,15.47
2018-04-18T09:20:28.653Z,14.27
2018-04-18T09:22:56.166Z,16.53
2018-04-18T09:25:24.466Z,15.90
2018-04-18T09:27:51.990Z,16.13
2018-04-18T09:30:19.510Z,17.40
2018-04-18T09:32:47.043Z,15.43
2018-04-18T09:35:14.565Z,13.60
2018-04-18T09:37:42.110Z,12.00
2018-04-18T09:40:09.660Z,10.03
2018-04-18T09:42:37.182Z,12.10
2018-04-18T09:45:04.750Z,15.70
2018-04-18T09:47:32.294Z,9.87
2018-04-18T09:49:59.821Z,13.77
2018-04-18T09:52:28.118Z,12.07
2018-04-18T09:54:55.641Z,11.07
2018-04-18T09:57:23.177Z,10.57
2018-04-18T09:59:52.285Z,9.90
2018-04-18T10:05:24.465Z,10.67
2018-04-18T10:07:51.980Z,7.57
2018-04-18T10:10:19.523Z,9.23
2018-04-18T10:12:47.037Z,10.60
2018-04-18T10:15:14.548Z,14.50
2018-04-18T10:17:42.098Z,11.47
2018-04-18T10:20:10.355Z,9.43
2018-04-18T10:22:38.772Z,8.57
2018-04-18T10:25:06.300Z,12.90
2018-04-18T10:27:34.583Z,13.03
2018-04-18T10:30:02.126Z,13.43
2018-04-18T10:32:30.428Z,14.40
2018-04-18T10:34:58.003Z,12.83
2018-04-18T10:37:25.530Z,13.47
2018-04-18T10:39:53.817Z,11.93
2018-04-18T10:42:21.336Z,18.23
2018-04-18T10:44:48.864Z,9.83
2018-04-18T10:47:16.384Z,15.03
2018-04-18T10:49:44.696Z,17.47
2018-04-18T10:52:12.264Z,13.23
2018-04-18T10:54:39.774Z,12.17
2018-04-18T10:57:08.061Z,15.50
2018-04-18T10:59:36.367Z,13.23
2018-04-18T11:02:03.890Z,13.53
2018-04-18T11:04:31.417Z,16.67
2018-04-18T11:06:59.329Z,13.50
2018-04-18T11:09:26.847Z,12.60
2018-04-18T11:11:54.396Z,10.17
2018-04-18T11:14:21.919Z,12.80
2018-04-18T11:16:49.427Z,8.70
2018-04-18T11:19:16.979Z,11.97
2018-04-18T11:21:44.531Z,11.03
2018-04-18T11:24:12.042Z,9.67
2018-04-18T11:26:39.679Z,12.17
2018-04-18T11:29:07.198Z,12.77
2018-04-18T11:31:34.748Z,8.63
2018-04-18T11:34:02.293Z,9.20
2018-04-18T11:36:29.821Z,9.67
2018-04-18T11:38:58.104Z,10.60
2018-04-18T11:41:25.657Z,10.77
2018-04-18T11:43:53.182Z,12.13
2018-04-18T11:46:21.505Z,10.23
2018-04-18T11:48:49.064Z,13.57
2018-04-18T11:51:16.596Z,12.00
2018-04-18T11:53:44.984Z,9.07
2018-04-18T11:56:12.503Z,10.17
2018-04-18T11:58:40.021Z,10.33
2018-04-18T12:01:07.596Z,10.43
2018-04-18T12:03:35.149Z,10.53
2018-04-18T12:06:02.686Z,8.00
2018-04-18T12:08:30.211Z,13.97
2018-04-18T12:10:58.540Z,12.37
2018-04-18T12:13:26.071Z,14.23
2018-04-18T12:15:53.595Z,11.47
2018-04-18T12:18:21.114Z,12.20
2018-04-18T12:20:48.633Z,9.93
2018-04-18T12:23:16.148Z,13.77
2018-04-18T12:25:43.686Z,12.33
2018-04-18T12:28:11.221Z,13.40
2018-04-18T12:30:38.767Z,11.57
2018-04-18T12:33:06.295Z,13.77
2018-04-18T12:35:34.232Z,9.33
2018-04-18T12:38:01.769Z,11.47
2018-04-18T12:40:29.326Z,10.23
2018-04-18T12:42:56.859Z,11.70
2018-04-18T12:45:25.145Z,9.90
2018-04-18T12:47:53.431Z,9.97
2018-04-18T12:50:21.712Z,14.13
2018-04-18T12:52:49.988Z,9.53
2018-04-18T12:55:18.296Z,16.87
2018-04-18T12:57:45.817Z,11.77
2018-04-18T13:00:14.123Z,15.37
2018-04-18T13:02:41.653Z,10.47
2018-04-18T13:05:09.943Z,12.60
2018-04-18T13:07:37.502Z,11.90
2018-04-18T13:10:05.039Z,12.03
2018-04-18T13:12:33.349Z,12.47
2018-04-18T13:15:00.868Z,12.10
2018-04-18T13:17:28.408Z,15.43
2018-04-18T13:19:55.927Z,16.27
2018-04-18T13:22:23.483Z,20.07
2018-04-18T13:24:50.998Z,13.03
2018-04-18T13:27:18.551Z,14.23
2018-04-18T13:29:46.089Z,14.40
2018-04-18T13:32:13.613Z,15.63
2018-04-18T13:34:41.129Z,14.27
2018-04-18T13:37:09.474Z,11.70
2018-04-18T13:39:36.984Z,15.10
2018-04-18T13:42:05.265Z,14.87
2018-04-18T13:44:33.597Z,12.33
2018-04-18T13:47:01.180Z,14.53
2018-04-18T13:49:29.466Z,13.53
2018-04-18T13:51:57.760Z,13.60
2018-04-18T13:54:25.325Z,16.77
2018-04-18T13:56:52.870Z,13.80
2018-04-18T13:59:20.411Z,15.67
2018-04-18T14:01:47.964Z,14.50
2018-04-18T14:04:15.501Z,13.27
2018-04-18T14:06:43.039Z,14.83
2018-04-18T14:09:10.553Z,14.47
2018-04-18T14:11:38.864Z,14.97
2018-04-18T14:14:06.376Z,14.20
2018-04-18T14:16:33.907Z,16.10
2018-04-18T14:19:01.439Z,14.47
2018-04-18T14:21:28.966Z,17.10
2018-04-18T14:23:56.496Z,13.30
2018-04-18T14:26:24.054Z,15.13
2018-04-18T14:28:51.588Z,16.57
2018-04-18T14:31:19.120Z,15.40
2018-04-18T14:33:46.680Z,14.90
2018-04-18T14:36:14.191Z,16.83
2018-04-18T14:38:41.754Z,13.53
2018-04-18T14:41:09.358Z,13.53
2018-04-18T14:43:36.898Z,15.97
2018-04-18T14:46:04.430Z,15.37
2018-04-18T14:48:31.956Z,15.40
2018-04-18T14:50:59.558Z,13.40
2018-04-18T14:53:27.105Z,16.33
2018-04-18T14:55:54.638Z,11.30
2018-04-18T14:58:23.026Z,15.47
2018-04-18T15:00:50.548Z,17.00
2018-04-18T15:03:18.080Z,13.90
2018-04-18T15:05:46.375Z,14.47
2018-04-18T15:08:13.932Z,14.30
2018-04-18T15:10:41.472Z,12.17
2018-04-18T15:13:09.777Z,14.67
2018-04-18T15:15:37.308Z,12.73
2018-04-18T15:18:05.618Z,12.97
2018-04-18T15:20:33.170Z,15.50
2018-04-18T15:23:00.759Z,16.70
2018-04-18T15:25:28.295Z,15.27
2018-04-18T15:27:55.853Z,12.27
2018-04-18T15:30:23.356Z,19.07
2018-04-18T15:32:50.904Z,13.93
2018-04-18T15:35:18.450Z,14.40
2018-04-18T15:37:46.009Z,15.83
2018-04-18T15:40:13.567Z,16.10
2018-04-18T15:42:41.675Z,14.40
2018-04-18T15:45:09.218Z,17.70
2018-04-18T15:47:36.745Z,14.47
2018-04-18T15:50:04.266Z,15.37
2018-04-18T15:52:32.539Z,14.07
2018-04-18T15:55:01.752Z,17.43
2018-04-18T15:57:29.299Z,14.17
2018-04-18T15:59:57.605Z,12.87
2018-04-18T16:02:25.145Z,19.07
2018-04-18T16:04:52.698Z,16.77
2018-04-18T16:07:20.230Z,13.53
2018-04-18T16:09:47.773Z,13.60
2018-04-18T16:12:15.314Z,16.60
2018-04-18T16:14:42.865Z,14.97
2018-04-18T16:17:10.413Z,17.20
2018-04-18T16:19:37.979Z,13.87
2018-04-18T16:22:05.533Z,15.77
2018-04-18T16:24:33.055Z,15.40
2018-04-18T16:27:01.399Z,13.57
2018-04-18T16:29:40.724Z,14.70
2018-04-18T16:32:08.342Z,15.53
2018-04-18T16:34:35.894Z,13.63
2018-04-18T16:37:04.214Z,14.43
2018-04-18T16:39:31.782Z,15.00
2018-04-18T16:41:59.336Z,12.40
2018-04-18T16:44:26.840Z,12.67
2018-04-18T16:46:54.351Z,13.07
2018-04-18T16:49:21.885Z,14.13
2018-04-18T16:51:49.425Z,14.07
2018-04-18T16:54:16.958Z,13.50
2018-04-18T16:56:44.483Z,16.53
2018-04-18T16:59:12.029Z,16.87
2018-04-18T17:01:39.579Z,429.20
2018-04-18T17:04:07.129Z,599.47
2018-04-18T17:06:34.669Z,329.90
2018-04-18T17:09:02.991Z,219.20
2018-04-18T17:11:30.517Z,20.40
2018-04-18T17:13:58.077Z,327.20
2018-04-18T17:16:26.407Z,199.43
2018-04-18T17:18:53.935Z,32.03
2018-04-18T17:21:21.458Z,41.10
2018-04-18T17:23:49.738Z,65.27
2018-04-18T17:26:18.082Z,56.27
2018-04-18T17:28:46.065Z,28.97
2018-04-18T17:31:14.490Z,12.70
2018-04-18T17:33:42.026Z,13.07
2018-04-18T17:36:10.333Z,16.90
2018-04-18T17:38:37.878Z,14.70
2018-04-18T17:41:06.218Z,16.77
2018-04-18T17:43:34.517Z,13.97
2018-04-18T17:46:02.847Z,13.77
2018-04-18T17:48:30.408Z,14.47
2018-04-18T17:50:57.923Z,17.43
2018-04-18T17:53:25.464Z,15.07
2018-04-18T17:55:53.026Z,15.50
2018-04-18T17:58:21.341Z,16.57
2018-04-18T18:00:48.910Z,14.33
2018-04-18T18:03:16.462Z,14.70
2018-04-18T18:05:44.274Z,13.93
2018-04-18T18:08:12.684Z,14.43
2018-04-18T18:10:40.320Z,15.23
2018-04-18T18:13:08.644Z,19.53
2018-04-18T18:15:36.215Z,14.23
2018-04-18T18:18:03.826Z,17.87
2018-04-18T18:20:32.194Z,16.57
2018-04-18T18:22:59.829Z,14.87
2018-04-18T18:25:27.433Z,14.60
2018-04-18T18:27:56.038Z,16.03
2018-04-18T18:30:23.638Z,15.03
2018-04-18T18:32:51.262Z,16.03
2018-04-18T18:35:19.519Z,17.17
2018-04-18T18:37:47.275Z,14.97
2018-04-18T18:40:15.126Z,15.90
2018-04-18T18:42:42.752Z,12.70
2018-04-18T18:45:10.371Z,15.10
2018-04-18T18:47:37.983Z,15.60
2018-04-18T18:50:05.603Z,22.93
2018-04-18T18:52:33.217Z,17.70
2018-04-18T18:55:00.884Z,14.17
2018-04-18T18:57:28.587Z,14.90
2018-04-18T18:59:56.322Z,15.33
2018-04-18T19:02:23.946Z,19.70
2018-04-18T19:04:51.751Z,14.40
2018-04-18T19:07:19.523Z,14.10
2018-04-18T19:09:47.289Z,13.43
2018-04-18T19:12:14.940Z,12.07
2018-04-18T19:14:42.689Z,14.67
2018-04-18T19:17:11.156Z,16.07
2018-04-18T19:19:39.638Z,13.30
2018-04-18T19:22:07.460Z,13.13
2018-04-18T19:24:35.031Z,16.93
2018-04-18T19:27:02.709Z,16.40
2018-04-18T19:29:31.248Z,13.50
2018-04-18T19:31:58.899Z,16.80
2018-04-18T19:34:26.468Z,19.87
2018-04-18T19:36:54.013Z,16.57
2018-04-18T19:39:21.640Z,14.07
2018-04-18T19:41:49.282Z,18.00
2018-04-18T19:44:16.879Z,11.63
2018-04-18T19:46:45.223Z,17.73
2018-04-18T19:49:13.717Z,17.97
2018-04-18T19:51:41.302Z,19.00
2018-04-18T19:54:08.877Z,18.70
2018-04-18T19:56:36.433Z,18.27
2018-04-18T19:59:04.037Z,29.60
2018-04-18T20:01:32.463Z,25.23
2018-04-18T20:04:00.318Z,17.30
2018-04-18T20:06:27.965Z,17.07
2018-04-18T20:08:55.599Z,16.10
2018-04-18T20:11:23.293Z,21.17
2018-04-18T20:13:51.639Z,16.83
2018-04-18T20:16:19.229Z,17.80
2018-04-18T20:18:46.845Z,18.43
2018-04-18T20:21:15.132Z,17.43
2018-04-18T20:23:42.692Z,16.23
2018-04-18T20:26:10.293Z,18.50
2018-04-18T20:28:38.606Z,17.20
2018-04-18T20:31:06.204Z,16.77
2018-04-18T20:33:33.907Z,17.83
2018-04-18T20:36:01.472Z,18.30
2018-04-18T20:38:29.023Z,18.30
2018-04-18T20:40:56.588Z,30.30
2018-04-18T20:43:24.135Z,25.07
2018-04-18T20:45:51.714Z,16.33
2018-04-18T20:48:19.301Z,14.77
2018-04-18T20:50:47.645Z,17.23
2018-04-18T20:53:15.215Z,20.40
2018-04-18T20:55:42.788Z,22.83
2018-04-18T20:58:10.344Z,20.40
2018-04-18T21:00:37.987Z,18.20
2018-04-18T21:03:05.563Z,15.23
2018-04-18T21:05:33.134Z,18.47
2018-04-18T21:08:00.664Z,16.43
2018-04-18T21:10:28.237Z,18.17
2018-04-18T21:12:55.772Z,18.07
2018-04-18T21:15:24.090Z,17.70
2018-04-18T21:17:51.620Z,18.13
2018-04-18T21:20:19.173Z,15.83
2018-04-18T21:22:46.709Z,17.73
2018-04-18T21:25:14.271Z,16.00
2018-04-18T21:27:42.574Z,16.50
2018-04-18T21:30:10.125Z,16.60
2018-04-18T21:32:37.707Z,15.27
2018-04-18T21:35:05.259Z,17.70
2018-04-18T21:37:33.029Z,19.27
2018-04-18T21:40:00.577Z,16.73
2018-04-18T21:42:28.139Z,17.43
2018-04-18T21:44:55.671Z,16.10
2018-04-18T21:47:23.227Z,17.03
2018-04-18T21:49:51.528Z,16.63
2018-04-18T21:52:19.132Z,17.10
2018-04-18T21:54:46.681Z,16.40
2018-04-18T21:57:14.215Z,16.53
2018-04-18T21:59:41.750Z,18.37
2018-04-18T22:02:09.289Z,17.60
2018-04-18T22:04:37.626Z,17.00
2018-04-18T22:07:05.168Z,15.73
2018-04-18T22:09:33.531Z,18.57
2018-04-18T22:12:01.104Z,17.07
2018-04-18T22:14:28.642Z,18.23
2018-04-18T22:16:56.231Z,14.80
2018-04-18T22:19:24.566Z,16.57
2018-04-18T22:21:53.279Z,16.27
2018-04-18T22:24:20.820Z,15.50
2018-04-18T22:26:49.155Z,17.13
2018-04-18T22:29:16.683Z,15.40
2018-04-18T22:31:44.957Z,17.03
2018-04-18T22:34:12.487Z,15.73
2018-04-18T22:36:40.048Z,15.03
2018-04-18T22:39:07.611Z,15.43
2018-04-18T22:41:35.251Z,15.20
2018-04-18T22:44:03.581Z,17.20
2018-04-18T22:46:31.133Z,16.60
2018-04-18T22:48:58.714Z,14.53
2018-04-18T22:51:26.265Z,13.30
2018-04-18T22:53:53.824Z,15.63
2018-04-18T22:56:21.346Z,16.17
2018-04-18T22:58:48.963Z,11.70
2018-04-18T23:01:16.873Z,11.70
2018-04-18T23:03:44.431Z,14.87
2018-04-18T23:06:11.976Z,15.30
2018-04-18T23:08:39.555Z,13.27
2018-04-18T23:11:07.540Z,11.80
2018-04-18T23:13:35.558Z,11.43
2018-04-18T23:16:03.118Z,17.43
2018-04-18T23:18:30.698Z,11.93
2018-04-18T23:20:58.238Z,10.47
2018-04-18T23:23:25.792Z,11.83
2018-04-18T23:25:53.370Z,14.07
2018-04-18T23:28:21.677Z,13.07
2018-04-18T23:30:49.214Z,15.20
2018-04-18T23:33:17.520Z,12.53
2018-04-18T23:35:45.069Z,14.83
2018-04-18T23:38:12.600Z,10.53
2018-04-18T23:40:40.933Z,12.03
2018-04-18T23:43:08.466Z,11.23
2018-04-18T23:45:36.001Z,13.93
2018-04-18T23:48:03.530Z,10.23
2018-04-18T23:50:31.065Z,11.63
2018-04-18T23:52:59.058Z,12.87
2018-04-18T23:55:26.652Z,12.20
2018-04-18T23:57:54.176Z,11.70
